sensor_id;sensor_type;location;lat;lon;timestamp;temperature;humidity
22418;DHT22;11376;50.932;4.442;2022-09-01T20:40:23;20.40;88.80
22418;DHT22;11376;50.932;4.442;2022-09-01T20:45:37;19.60;90.60
22418;DHT22;11376;50.932;4.442;2022-09-01T20:48:11;19.80;90.20
22418;DHT22;11376;50.932;4.442;2022-09-01T20:58:46;20.60;85.00
22418;DHT22;11376;50.932;4.442;2022-09-01T21:01:31;20.70;84.20
22418;DHT22;11376;50.932;4.442;2022-09-01T21:23:13;20.80;81.90
22418;DHT22;11376;50.932;4.442;2022-09-01T21:25:42;20.80;81.80
22418;DHT22;11376;50.932;4.442;2022-09-01T21:28:08;20.80;82.00
22418;DHT22;11376;50.932;4.442;2022-09-01T21:30:35;20.80;81.90
22418;DHT22;11376;50.932;4.442;2022-09-01T21:33:01;20.80;82.00
22418;DHT22;11376;50.932;4.442;2022-09-01T21:35:27;20.70;82.00
22418;DHT22;11376;50.932;4.442;2022-09-01T21:37:52;20.70;82.10
22418;DHT22;11376;50.932;4.442;2022-09-01T21:40:20;20.70;81.90
22418;DHT22;11376;50.932;4.442;2022-09-01T21:43:03;20.70;82.10
22418;DHT22;11376;50.932;4.442;2022-09-01T21:45:31;20.60;82.20
22418;DHT22;11376;50.932;4.442;2022-09-01T21:47:57;20.60;82.50
22418;DHT22;11376;50.932;4.442;2022-09-01T21:50:24;20.50;83.20
22418;DHT22;11376;50.932;4.442;2022-09-01T21:52:50;20.50;83.90
22418;DHT22;11376;50.932;4.442;2022-09-01T21:55:16;20.40;84.80
22418;DHT22;11376;50.932;4.442;2022-09-01T21:57:42;20.30;85.50
22418;DHT22;11376;50.932;4.442;2022-09-01T22:00:12;20.20;86.00
22418;DHT22;11376;50.932;4.442;2022-09-01T22:02:39;20.30;86.50
22418;DHT22;11376;50.932;4.442;2022-09-01T22:05:05;20.20;86.60
22418;DHT22;11376;50.932;4.442;2022-09-01T22:07:35;20.20;87.20
22418;DHT22;11376;50.932;4.442;2022-09-01T22:10:06;20.10;87.70
22418;DHT22;11376;50.932;4.442;2022-09-01T22:12:35;20.10;88.10
22418;DHT22;11376;50.932;4.442;2022-09-01T22:15:03;20.10;88.80
22418;DHT22;11376;50.932;4.442;2022-09-01T22:17:29;20.00;89.20
22418;DHT22;11376;50.932;4.442;2022-09-01T22:19:56;20.00;90.00
22418;DHT22;11376;50.932;4.442;2022-09-01T22:22:22;19.90;90.50
22418;DHT22;11376;50.932;4.442;2022-09-01T22:24:47;19.90;90.80
22418;DHT22;11376;50.932;4.442;2022-09-01T22:27:13;19.90;91.20
22418;DHT22;11376;50.932;4.442;2022-09-01T22:29:39;19.80;91.50
22418;DHT22;11376;50.932;4.442;2022-09-01T22:32:04;19.80;92.00
22418;DHT22;11376;50.932;4.442;2022-09-01T22:34:32;19.80;92.50
22418;DHT22;11376;50.932;4.442;2022-09-01T22:36:58;19.70;93.00
22418;DHT22;11376;50.932;4.442;2022-09-01T22:39:24;19.70;93.30
22418;DHT22;11376;50.932;4.442;2022-09-01T22:41:49;19.70;93.60
22418;DHT22;11376;50.932;4.442;2022-09-01T22:44:15;19.60;93.90
22418;DHT22;11376;50.932;4.442;2022-09-01T22:46:41;19.60;94.20
22418;DHT22;11376;50.932;4.442;2022-09-01T22:49:07;19.60;94.70
22418;DHT22;11376;50.932;4.442;2022-09-01T22:51:35;19.50;95.20
22418;DHT22;11376;50.932;4.442;2022-09-01T22:54:01;19.50;95.80
22418;DHT22;11376;50.932;4.442;2022-09-01T22:56:30;19.40;96.20
22418;DHT22;11376;50.932;4.442;2022-09-01T22:58:58;19.40;97.10
22418;DHT22;11376;50.932;4.442;2022-09-01T23:01:28;19.40;97.10
22418;DHT22;11376;50.932;4.442;2022-09-01T23:03:56;19.40;97.30
22418;DHT22;11376;50.932;4.442;2022-09-01T23:06:25;19.30;97.40
22418;DHT22;11376;50.932;4.442;2022-09-01T23:08:51;19.30;97.80
22418;DHT22;11376;50.932;4.442;2022-09-01T23:11:16;19.30;98.20
22418;DHT22;11376;50.932;4.442;2022-09-01T23:13:43;19.20;98.90
22418;DHT22;11376;50.932;4.442;2022-09-01T23:16:11;19.20;98.70
22418;DHT22;11376;50.932;4.442;2022-09-01T23:18:39;19.10;99.10
22418;DHT22;11376;50.932;4.442;2022-09-01T23:21:07;19.10;99.40
22418;DHT22;11376;50.932;4.442;2022-09-01T23:23:34;19.10;99.70
22418;DHT22;11376;50.932;4.442;2022-09-01T23:26:05;19.10;99.90
22418;DHT22;11376;50.932;4.442;2022-09-01T23:28:32;19.00;99.90
22418;DHT22;11376;50.932;4.442;2022-09-01T23:30:57;19.00;99.90
22418;DHT22;11376;50.932;4.442;2022-09-01T23:33:24;18.90;99.90
22418;DHT22;11376;50.932;4.442;2022-09-01T23:35:53;18.90;99.90
22418;DHT22;11376;50.932;4.442;2022-09-01T23:38:20;18.90;99.90
22418;DHT22;11376;50.932;4.442;2022-09-01T23:40:48;18.80;99.90
22418;DHT22;11376;50.932;4.442;2022-09-01T23:43:16;18.80;99.90
22418;DHT22;11376;50.932;4.442;2022-09-01T23:45:48;18.70;99.90
22418;DHT22;11376;50.932;4.442;2022-09-01T23:48:14;18.70;99.90
22418;DHT22;11376;50.932;4.442;2022-09-01T23:50:49;18.60;99.90
22418;DHT22;11376;50.932;4.442;2022-09-01T23:53:25;18.60;99.90
22418;DHT22;11376;50.932;4.442;2022-09-01T23:55:54;18.50;99.90
22418;DHT22;11376;50.932;4.442;2022-09-01T23:58:21;18.50;99.90
